EFHK

Helsinki Vantaa Airport

Helsinki, Finland
METAR EFHK 131120Z 02009KT 350V050 9999 BKN018 M02/M05 Q1033 NOSIG
Observed Flight Rules
Dec-13 @ 11:20 UTC (38 minutes ago) Marginal Visual Flight Rules
Wind Visibility Clouds
20° at 9 knots 10,000+ meters
  • Broken at 1,800' AGL
Temperatures Readings
Current -2°C / 28°F
Dewpoint -5°C / 23°F
Humidity 80%
Altimeter 30.5" Hg
Pressure 1033 hPa
Elevation 56
METAR EFHK 131120Z 02009KT 350V050 9999 BKN018 M02/M05 Q1033 NOSIG
Observed Flight Rules
Dec-13 @ 11:20 UTC
(38 minutes ago)
MVFR
Wind Visibility
20° at 9 knots 10,000+ meters
Clouds
  • Broken at 1,800' AGL
Temperature Dewpoint
-2°C / 28°F -5°C / 23°F
Humidity Altimeter Pressure
80% 30.5" Hg 1033 hPa